Weather reports worldwide

Advertisment
Malaga,Puerto, Spain (8479): temperature & dewpoint: 16.09.2018 23:00:00 - 22.09.2018 23:00:00 (CEST)Malaga,Puerto, Spain (8479): wind speed & gusts: 16.09.2018 23:00:00 - 22.09.2018 23:00:00 (CEST)Malaga,Puerto, Spain (8479): wind direction: 16.09.2018 23:00:00 - 22.09.2018 23:00:00 (CEST)Malaga,Puerto, Spain (8479): reduced air pressure: 16.09.2018 23:00:00 - 22.09.2018 23:00:00 (CEST)Malaga,Puerto, Spain (8479): precipitation: 16.09.2018 23:00:00 - 22.09.2018 23:00:00 (CEST)
Date & Time tt [°C] td [°C] ff [km/h] ff [kn] fx [km/h] fx [kn] dd ppp [hPa] rr [mm]
22.09.2018 23:00:00 24,4 16,9 7 4 13 7 NNW 1021,0 0,0
22.09.2018 22:00:00 24,5 18,2 0 0 6 3 SE 1020,6 0,0
22.09.2018 21:00:00 24,5 18,4 3 2 9 5 SSE 1020,1 0,0
22.09.2018 20:00:00 24,9 18,6 7 4 10 6 SSE 1019,8 -
22.09.2018 19:00:00 26,1 19,5 4 2 8 5 S 1019,5 0,0
22.09.2018 18:00:00 26,8 20,2 4 2 14 8 S 1019,5 0,0
22.09.2018 17:00:00 26,6 19,7 5 3 12 7 SSE 1019,6 0,0
22.09.2018 16:00:00 25,9 20,5 8 5 16 9 SE 1020,2 0,0
22.09.2018 15:00:00 24,7 20,2 14 7 18 10 SE 1020,7 0,0
22.09.2018 14:00:00 25,0 20,5 12 7 17 9 SE 1021,0 -
22.09.2018 13:00:00 24,7 19,8 11 6 14 8 SE 1021,0 0,0
22.09.2018 12:00:00 25,4 18,8 8 4 11 6 SSE 1020,8 0,0
22.09.2018 11:00:00 25,3 18,0 7 4 11 6 SE 1020,2 0,0
22.09.2018 10:00:00 27,0 13,7 3 2 6 3 SSE 1019,7 0,0
22.09.2018 09:00:00 23,9 12,2 3 1 10 5 N 1019,3 0,0
22.09.2018 08:00:00 22,4 11,5 5 3 10 5 NNW 1018,8 -
22.09.2018 07:00:00 22,5 11,9 2 1 7 4 NNW 1018,4 0,0
22.09.2018 06:00:00 22,8 11,8 4 2 9 5 N 1018,0 0,0
22.09.2018 05:00:00 23,0 12,0 6 3 13 7 N 1017,8 0,0
22.09.2018 04:00:00 23,0 12,6 6 4 14 8 NNW 1018,1 0,0
22.09.2018 03:00:00 23,5 13,1 3 1 8 5 N 1018,2 0,0
22.09.2018 02:00:00 23,8 13,7 1 1 6 4 NW 1018,3 -
22.09.2018 01:00:00 23,6 15,1 0 0 4 2 NE 1018,3 0,0
22.09.2018 00:00:00 23,2 17,4 0 0 5 3 NNE 1018,0 0,0
21.09.2018 23:00:00 23,8 20,7 1 0 3 2 S 1017,9 0,0
21.09.2018 22:00:00 24,0 20,7 0 0 5 3 E 1017,6 0,0
21.09.2018 21:00:00 23,9 20,4 0 0 6 3 ESE 1017,0 0,0
21.09.2018 20:00:00 24,2 20,1 4 2 12 6 ESE 1016,9 -
21.09.2018 19:00:00 24,6 19,7 7 4 13 7 SE 1016,4 0,0
21.09.2018 18:00:00 25,4 19,8 8 4 12 7 SE 1016,3 0,0
21.09.2018 17:00:00 25,7 19,3 7 4 14 8 SE 1016,6 0,0
21.09.2018 16:00:00 26,1 19,0 9 5 15 8 SSE 1016,9 0,0
21.09.2018 15:00:00 26,8 18,9 9 5 15 8 S 1017,1 0,0
21.09.2018 14:00:00 26,7 19,1 9 5 13 7 S 1017,5 -
21.09.2018 13:00:00 26,6 18,5 7 4 14 8 SSE 1017,8 0,0
21.09.2018 12:00:00 26,5 17,8 9 5 14 8 SSE 1017,7 0,0
21.09.2018 11:00:00 27,4 14,8 4 2 8 4 SSE 1017,2 0,0
21.09.2018 10:00:00 24,8 12,1 6 4 16 9 NNW 1016,6 0,0
21.09.2018 09:00:00 22,5 12,5 7 4 13 7 NNW 1016,8 0,0
21.09.2018 08:00:00 22,1 15,5 5 3 11 6 NNW 1016,7 -
21.09.2018 07:00:00 22,6 17,1 4 2 9 5 WNW 1016,1 0,0
21.09.2018 06:00:00 22,4 16,9 5 3 13 7 W 1016,0 0,0
21.09.2018 05:00:00 22,6 17,1 6 4 12 6 NW 1016,0 0,0
21.09.2018 04:00:00 22,6 17,1 8 5 15 8 NW 1016,4 0,0
21.09.2018 03:00:00 22,8 17,5 9 5 16 8 NNW 1017,0 0,0
21.09.2018 02:00:00 23,0 17,7 6 4 14 8 NNW 1017,3 -
21.09.2018 01:00:00 23,3 17,5 7 4 15 8 N 1017,3 0,0
21.09.2018 00:00:00 23,9 17,9 3 2 10 6 NNW 1017,4 0,0
20.09.2018 23:00:00 24,0 19,1 3 1 9 5 NNW 1017,3 0,0
20.09.2018 22:00:00 24,1 20,2 0 0 4 2 E 1017,1 0,0
20.09.2018 21:00:00 24,0 20,3 3 2 8 4 ESE 1016,8 0,0
20.09.2018 20:00:00 24,3 19,6 5 3 9 5 ESE 1016,7 -
20.09.2018 19:00:00 25,4 19,8 6 3 11 6 SSE 1016,5 0,0
20.09.2018 18:00:00 25,3 19,4 8 4 13 7 SE 1016,7 0,0
20.09.2018 17:00:00 25,3 19,9 10 5 15 8 SE 1017,3 0,0
20.09.2018 16:00:00 25,8 19,9 10 5 14 8 SE 1017,7 0,0
20.09.2018 15:00:00 25,4 19,3 10 5 14 7 SE 1018,2 0,0
20.09.2018 14:00:00 26,5 18,9 9 5 14 8 SSE 1018,7 -
20.09.2018 13:00:00 27,1 18,9 10 5 14 8 S 1019,1 0,0
20.09.2018 12:00:00 27,9 17,7 5 3 11 6 SSE 1019,2 0,0
20.09.2018 11:00:00 26,4 17,7 5 3 9 5 SSW 1019,0 0,0
20.09.2018 10:00:00 26,1 17,7 3 2 14 7 NW 1018,2 0,0
20.09.2018 09:00:00 23,8 17,1 6 3 11 6 NNW 1018,5 0,0
20.09.2018 08:00:00 23,2 17,0 4 2 12 6 W 1018,5 -
20.09.2018 07:00:00 23,3 17,1 5 3 13 7 N 1018,2 0,0
20.09.2018 06:00:00 22,9 17,1 9 5 17 9 NW 1018,3 0,0
20.09.2018 05:00:00 22,9 17,1 9 5 16 8 NNW 1018,4 0,0
20.09.2018 04:00:00 23,0 17,2 8 5 16 9 N 1018,7 0,0
20.09.2018 03:00:00 23,1 17,3 8 4 14 8 NNW 1018,9 0,0
20.09.2018 02:00:00 23,5 17,3 8 4 12 6 NNW 1019,1 -
20.09.2018 01:00:00 23,9 17,2 6 3 13 7 NNW 1019,4 0,0
20.09.2018 00:00:00 23,5 19,0 1 1 6 4 NE 1019,8 0,0
19.09.2018 23:00:00 24,3 19,1 5 3 10 5 E 1019,5 0,0
19.09.2018 22:00:00 24,5 19,6 5 3 7 4 SSW 1018,6 0,0
19.09.2018 21:00:00 24,5 19,6 1 1 6 3 E 1018,4 0,0
19.09.2018 20:00:00 25,1 19,0 4 2 10 6 SSW 1018,0 -
19.09.2018 19:00:00 25,3 19,4 8 4 13 7 E 1017,6 0,0
19.09.2018 18:00:00 24,8 19,6 8 4 14 8 SE 1017,4 0,0
19.09.2018 17:00:00 25,1 19,5 9 5 16 9 ESE 1017,5 0,0
19.09.2018 16:00:00 26,0 19,6 10 5 15 8 SSE 1017,8 0,0
19.09.2018 15:00:00 26,2 19,3 9 5 14 8 SSE 1018,1 0,0
19.09.2018 14:00:00 25,5 19,2 9 5 13 7 SSE 1018,5 -
19.09.2018 13:00:00 26,0 18,7 8 5 15 8 SSE 1018,6 0,0
19.09.2018 12:00:00 26,5 18,4 10 5 14 8 S 1018,5 0,0
19.09.2018 11:00:00 27,7 17,5 6 3 11 6 SSE 1017,7 0,0
19.09.2018 10:00:00 26,2 18,6 4 2 9 5 WSW 1017,2 0,0
19.09.2018 09:00:00 23,4 17,8 4 2 10 5 N 1017,1 0,0
19.09.2018 08:00:00 22,6 18,2 4 2 10 5 NW 1017,1 -
19.09.2018 07:00:00 22,9 18,2 4 2 9 5 NNW 1016,7 0,0
19.09.2018 06:00:00 23,0 18,5 4 2 7 4 NW 1016,6 0,0
19.09.2018 05:00:00 23,2 18,9 5 3 8 5 N 1016,3 0,0
19.09.2018 04:00:00 23,1 19,3 4 2 8 5 N 1016,2 0,0
19.09.2018 03:00:00 23,4 20,0 0 0 7 4 W 1016,3 0,0
19.09.2018 02:00:00 23,4 20,3 1 0 9 5 WNW 1016,3 -
19.09.2018 01:00:00 23,6 21,1 1 1 4 2 E 1016,4 0,0
19.09.2018 00:00:00 23,6 21,3 0 0 9 5 NE 1016,4 0,0
18.09.2018 23:00:00 23,6 21,3 5 3 8 4 SSW 1016,4 0,0
18.09.2018 22:00:00 23,9 21,6 1 1 11 6 ESE 1015,9 0,0
18.09.2018 21:00:00 24,0 21,5 6 3 11 6 SSE 1015,2 0,0
18.09.2018 20:00:00 24,7 20,8 4 2 9 5 SE 1014,5 -
18.09.2018 19:00:00 25,0 20,5 7 4 11 6 SSE 1014,2 0,0
18.09.2018 18:00:00 25,4 20,9 8 4 11 6 ESE 1013,9 0,0
18.09.2018 17:00:00 24,8 19,8 9 5 14 7 SE 1014,0 0,0
18.09.2018 16:00:00 25,4 19,5 10 6 17 9 SE 1014,1 0,0
18.09.2018 15:00:00 25,4 18,8 11 6 14 8 SE 1014,4 0,0
18.09.2018 14:00:00 26,1 18,5 8 4 17 9 SE 1014,8 -
18.09.2018 13:00:00 26,7 19,1 13 7 18 10 S 1015,0 0,0
18.09.2018 12:00:00 26,1 18,8 13 7 17 9 SSW 1014,9 0,0
18.09.2018 11:00:00 27,3 18,3 6 4 9 5 SSE 1014,5 0,0
18.09.2018 10:00:00 27,0 18,0 1 0 7 4 N 1013,9 0,0
18.09.2018 09:00:00 25,0 18,7 2 1 13 7 WSW 1014,3 0,0
18.09.2018 08:00:00 23,2 17,9 7 4 14 8 NW 1013,8 -
18.09.2018 07:00:00 23,2 18,3 8 5 16 9 NW 1013,4 0,0
18.09.2018 06:00:00 23,0 19,0 5 3 11 6 NNW 1012,9 0,0
18.09.2018 05:00:00 23,8 19,5 3 2 14 8 W 1013,1 0,0
18.09.2018 04:00:00 23,5 19,6 8 5 15 8 NW 1013,1 0,0
18.09.2018 03:00:00 23,8 19,9 6 4 11 6 NW 1013,3 0,0
18.09.2018 02:00:00 24,2 20,3 5 3 10 6 NNW 1013,7 -
18.09.2018 01:00:00 24,6 20,7 5 3 10 6 WNW 1013,9 0,0
18.09.2018 00:00:00 24,7 20,8 4 2 8 5 W 1014,2 0,0
17.09.2018 23:00:00 24,5 20,8 5 3 7 4 SW 1014,0 0,0
17.09.2018 22:00:00 24,5 20,6 5 3 8 5 SW 1013,7 0,0
17.09.2018 21:00:00 24,8 20,5 4 2 10 5 S 1013,1 0,0
17.09.2018 20:00:00 25,1 19,9 8 4 11 6 SSW 1013,2 -
17.09.2018 19:00:00 26,0 19,2 5 3 8 4 S 1012,9 0,0
17.09.2018 18:00:00 25,9 19,3 5 3 11 6 ESE 1013,3 0,0
17.09.2018 17:00:00 26,2 18,3 7 4 14 8 ESE 1013,4 0,0
17.09.2018 16:00:00 25,9 18,8 9 5 15 8 ESE 1014,1 0,0
17.09.2018 15:00:00 26,2 18,6 10 5 16 9 ESE 1014,8 0,0
17.09.2018 14:00:00 27,3 18,0 6 3 15 8 SE 1015,2 -
17.09.2018 13:00:00 25,9 18,8 10 5 22 12 SE 1015,7 0,0
17.09.2018 12:00:00 25,7 18,6 8 4 13 7 SE 1016,1 0,0
17.09.2018 11:00:00 26,8 19,2 2 1 12 6 SE 1016,4 0,0
17.09.2018 10:00:00 24,4 19,0 5 3 10 6 N 1016,4 0,1
17.09.2018 09:00:00 23,8 18,7 8 4 14 8 NW 1015,8 0,0
17.09.2018 08:00:00 23,6 18,3 6 3 14 8 NNW 1014,7 -
17.09.2018 07:00:00 23,5 18,4 5 3 16 9 N 1014,5 0,0
17.09.2018 06:00:00 23,7 18,4 5 3 13 7 N 1014,9 0,0
17.09.2018 05:00:00 23,6 18,3 3 2 13 7 NNW 1016,2 0,0
17.09.2018 04:00:00 23,8 18,4 1 1 13 7 NW 1016,9 0,0
17.09.2018 03:00:00 23,8 18,2 5 3 13 7 NNW 1016,2 0,0
17.09.2018 02:00:00 24,0 18,2 7 4 10 6 NW 1016,9 -
17.09.2018 01:00:00 24,0 18,4 4 2 11 6 N 1017,0 0,0
17.09.2018 00:00:00 24,8 18,7 1 1 8 4 SSE 1017,3 0,0
16.09.2018 23:00:00 24,9 18,6 4 2 11 6 N 1017,6 0,0

tt = temperature
td = dewpoint
ff = wind speed
fx = gusts
dd = wind direction
ppp = reduced air pressure
rr = precipitation

Next stations